Time;durP1;ratioP1;P1;durP2;ratioP2;P2;SDS_P1;SDS_P2;PMS_P1;PMS_P2;Temp;Humidity;BMP_temperature;BMP_pressure;BME280_temperature;BME280_humidity;BME280_pressure;Samples;Min_cycle;Max_cycle;Signal;HPM_P1;HPM_P2
2021/12/10 00:01:58;;;;;;;26.33;15.70;;;;;;;4.69;100.00;93574.28;5033663;28;20181;-63
2021/12/10 00:04:30;;;;;;;31.47;16.37;;;;;;;4.77;100.00;93577.00;5042458;22;20180;-61
2021/12/10 00:06:59;;;;;;;25.63;14.50;;;;;;;4.75;100.00;93605.72;5031914;28;20270;-63
2021/12/10 00:12:06;;;;;;;24.77;14.80;;;;;;;4.86;100.00;93588.84;5041825;22;20237;-63
2021/12/10 00:14:33;;;;;;;23.10;14.33;;;;;;;4.85;100.00;93577.19;5041412;22;20287;-64
2021/12/10 00:17:01;;;;;;;24.33;14.53;;;;;;;4.74;100.00;93581.47;5032458;28;20179;-62
2021/12/10 00:22:00;;;;;;;21.33;13.83;;;;;;;4.92;100.00;93585.03;5032531;28;20733;-62
2021/12/10 00:24:29;;;;;;;22.63;14.03;;;;;;;4.98;100.00;93592.91;5032258;28;20219;-62
2021/12/10 00:26:57;;;;;;;24.27;14.63;;;;;;;5.15;100.00;93598.31;5033373;28;20275;-61
2021/12/10 00:29:23;;;;;;;20.40;13.83;;;;;;;5.00;100.00;93565.09;5032084;28;20191;-61
2021/12/10 00:31:54;;;;;;;23.07;14.10;;;;;;;5.07;100.00;93571.22;5031780;28;20180;-65
2021/12/10 00:34:40;;;;;;;23.37;14.03;;;;;;;5.16;100.00;93569.66;5032450;28;20187;-61
2021/12/10 00:37:08;;;;;;;22.43;13.57;;;;;;;4.94;100.00;93555.50;5031358;28;20214;-64
2021/12/10 00:39:38;;;;;;;22.97;14.40;;;;;;;4.91;100.00;93566.63;5033409;28;20812;-61
2021/12/10 00:42:07;;;;;;;27.57;15.03;;;;;;;4.77;100.00;93561.88;5033426;28;20605;-62
2021/12/10 00:44:33;;;;;;;19.50;12.87;;;;;;;4.95;100.00;93572.19;5040461;22;20210;-63
2021/12/10 00:47:00;;;;;;;24.03;14.37;;;;;;;5.04;100.00;93582.34;5033016;28;20176;-59
2021/12/10 00:49:25;;;;;;;22.27;14.33;;;;;;;4.97;100.00;93561.09;5031517;28;20190;-61
2021/12/10 00:51:52;;;;;;;23.37;13.43;;;;;;;4.97;100.00;93566.13;5032823;28;20184;-62
2021/12/10 00:54:19;;;;;;;19.53;13.07;;;;;;;4.93;100.00;93564.78;5032917;28;20194;-63
2021/12/10 00:56:45;;;;;;;19.63;13.27;;;;;;;4.72;100.00;93546.38;5031441;28;20660;-62
2021/12/10 00:59:11;;;;;;;16.70;11.03;;;;;;;4.60;100.00;93544.81;5031508;28;20182;-63
2021/12/10 01:01:40;;;;;;;18.47;12.30;;;;;;;4.78;100.00;93540.03;5032664;28;20190;-62
2021/12/10 01:04:08;;;;;;;21.30;12.30;;;;;;;4.99;100.00;93541.63;5031309;28;20204;-64
2021/12/10 01:06:35;;;;;;;19.17;11.83;;;;;;;5.05;100.00;93535.28;5032993;28;20245;-65
2021/12/10 01:09:07;;;;;;;19.13;12.23;;;;;;;5.05;100.00;93533.56;5031252;28;20615;-61
2021/12/10 01:11:37;;;;;;;19.50;11.73;;;;;;;5.22;100.00;93546.50;5031154;28;20714;-66
2021/12/10 01:14:17;;;;;;;22.83;12.83;;;;;;;5.18;100.00;93540.13;5031413;28;20175;-62
2021/12/10 01:27:32;;;;;;;18.00;11.47;;;;;;;4.70;100.00;93542.38;5032225;28;20631;-61
2021/12/10 01:30:21;;;;;;;17.50;11.20;;;;;;;4.74;100.00;93538.69;5032595;28;20249;-62
2021/12/10 01:32:54;;;;;;;18.30;11.23;;;;;;;4.88;100.00;93526.59;5032242;28;20639;-64
2021/12/10 01:35:25;;;;;;;17.63;12.43;;;;;;;4.98;100.00;93517.38;5032546;28;20202;-66
2021/12/10 01:37:52;;;;;;;16.07;11.20;;;;;;;5.12;100.00;93528.84;5014896;28;20236;-61
2021/12/10 01:40:21;;;;;;;19.37;10.63;;;;;;;5.32;100.00;93530.50;5039542;22;20660;-61
2021/12/10 01:42:51;;;;;;;20.63;11.60;;;;;;;5.23;100.00;93512.84;5039468;22;20232;-62
2021/12/10 01:45:25;;;;;;;16.50;10.63;;;;;;;5.25;100.00;93505.97;5031980;28;20202;-63
2021/12/10 01:48:02;;;;;;;22.07;11.53;;;;;;;5.31;100.00;93513.00;5030423;28;20286;-64
2021/12/10 01:50:29;;;;;;;16.93;11.07;;;;;;;5.22;100.00;93518.78;5032160;28;20303;-61
2021/12/10 01:52:57;;;;;;;18.23;12.20;;;;;;;5.09;100.00;93509.72;5030986;28;20594;-61
2021/12/10 01:55:25;;;;;;;19.17;11.90;;;;;;;5.43;100.00;93522.06;5031958;28;20215;-61
2021/12/10 01:57:52;;;;;;;22.23;12.00;;;;;;;5.25;100.00;93516.03;5032126;28;20184;-62
2021/12/10 02:00:22;;;;;;;18.33;12.23;;;;;;;5.14;100.00;93501.81;5030351;28;20215;-60
2021/12/10 02:02:48;;;;;;;20.47;11.87;;;;;;;5.20;100.00;93495.47;5032186;28;20215;-61
2021/12/10 02:05:16;;;;;;;21.57;12.33;;;;;;;5.17;100.00;93486.44;5033006;28;20222;-63
2021/12/10 02:07:42;;;;;;;18.03;11.67;;;;;;;5.19;100.00;93481.28;5034754;28;20552;-62
2021/12/10 02:10:09;;;;;;;21.57;11.40;;;;;;;5.22;100.00;93476.78;5033803;22;20234;-62
2021/12/10 02:12:34;;;;;;;18.53;12.37;;;;;;;5.30;100.00;93478.66;5016055;28;20652;-62
2021/12/10 02:15:03;;;;;;;17.07;11.00;;;;;;;5.36;100.00;93483.19;5016132;28;20300;-61
2021/12/10 02:17:41;;;;;;;17.47;10.63;;;;;;;5.36;100.00;93476.44;5015897;28;20196;-61
2021/12/10 02:20:15;;;;;;;20.43;12.00;;;;;;;5.40;100.00;93476.97;5023077;23;20288;-62
2021/12/10 02:22:43;;;;;;;20.40;12.03;;;;;;;5.32;100.00;93464.22;5015590;28;20566;-59
2021/12/10 02:25:09;;;;;;;18.57;11.50;;;;;;;5.25;100.00;93475.75;5015982;28;20197;-61
2021/12/10 02:27:35;;;;;;;18.30;11.80;;;;;;;5.31;100.00;93465.16;5015654;28;20199;-59
2021/12/10 02:30:01;;;;;;;17.73;11.80;;;;;;;5.15;100.00;93462.31;5015773;28;20209;-60
2021/12/10 02:32:27;;;;;;;20.53;12.60;;;;;;;5.19;100.00;93463.66;5015744;28;20179;-58
2021/12/10 02:34:53;;;;;;;23.60;12.67;;;;;;;5.13;100.00;93463.22;5014972;28;20209;-60
2021/12/10 02:37:20;;;;;;;19.77;12.53;;;;;;;5.25;100.00;93453.88;5014315;28;20269;-59
2021/12/10 02:39:46;;;;;;;19.43;12.23;;;;;;;5.30;100.00;93461.03;5015623;28;20284;-59
2021/12/10 02:42:11;;;;;;;19.97;13.00;;;;;;;5.24;100.00;93471.59;5015634;28;20264;-60
2021/12/10 02:44:37;;;;;;;22.53;12.50;;;;;;;5.43;100.00;93490.13;5015685;28;20217;-62
2021/12/10 02:47:03;;;;;;;18.80;12.20;;;;;;;5.24;100.00;93476.66;5015554;28;20319;-61
2021/12/10 02:49:29;;;;;;;20.40;13.10;;;;;;;5.37;100.00;93477.22;5014061;28;20220;-60
2021/12/10 02:51:58;;;;;;;21.90;13.53;;;;;;;5.28;100.00;93498.94;5015305;28;20176;-59
2021/12/10 02:54:33;;;;;;;22.73;14.33;;;;;;;4.91;100.00;93480.22;5015398;28;20253;-59
2021/12/10 02:57:05;;;;;;;26.63;14.87;;;;;;;4.79;100.00;93492.09;5015353;28;20186;-61
2021/12/10 02:59:31;;;;;;;27.20;13.63;;;;;;;4.53;100.00;93485.03;5015244;28;20705;-58
2021/12/10 03:01:58;;;;;;;20.43;13.53;;;;;;;4.70;100.00;93484.50;5015173;28;20220;-60
2021/12/10 03:04:24;;;;;;;19.63;12.57;;;;;;;4.89;100.00;93482.88;5015174;28;20192;-60
2021/12/10 03:06:55;;;;;;;23.10;14.60;;;;;;;4.94;100.00;93490.84;5014948;28;20233;-60
2021/12/10 03:09:22;;;;;;;22.27;13.70;;;;;;;4.88;100.00;93498.91;5015023;28;20210;-61
2021/12/10 03:11:49;;;;;;;21.80;13.33;;;;;;;5.09;100.00;93489.59;5015026;28;20175;-60
2021/12/10 03:14:22;;;;;;;21.17;13.63;;;;;;;5.32;100.00;93485.16;5015179;28;20191;-59
2021/12/10 03:16:49;;;;;;;20.30;12.57;;;;;;;5.35;100.00;93462.25;5014912;28;20681;-61
2021/12/10 03:19:16;;;;;;;25.57;14.13;;;;;;;5.34;100.00;93468.19;5015213;28;20187;-59
2021/12/10 03:21:44;;;;;;;21.50;13.60;;;;;;;5.05;100.00;93470.59;5015608;28;20540;-61
2021/12/10 03:24:12;;;;;;;23.27;14.47;;;;;;;4.95;100.00;93476.53;5014822;28;20195;-59
2021/12/10 03:26:38;;;;;;;29.03;14.10;;;;;;;4.88;100.00;93473.72;5015012;28;20679;-59
2021/12/10 03:29:04;;;;;;;21.80;13.77;;;;;;;4.94;100.00;93473.22;5014888;28;20658;-59
2021/12/10 03:31:30;;;;;;;19.40;12.37;;;;;;;4.92;100.00;93487.66;5015054;28;20201;-61
2021/12/10 03:33:57;;;;;;;21.40;13.90;;;;;;;4.53;100.00;93495.91;5014491;28;20310;-61
2021/12/10 03:36:24;;;;;;;25.97;13.87;;;;;;;4.50;100.00;93491.13;5013284;28;20204;-58
2021/12/10 03:38:49;;;;;;;24.70;14.00;;;;;;;4.51;100.00;93487.69;5014566;28;20182;-61
2021/12/10 03:41:15;;;;;;;22.70;13.23;;;;;;;4.82;100.00;93476.75;5030680;22;20611;-58
2021/12/10 03:43:43;;;;;;;23.40;12.70;;;;;;;4.76;100.00;93473.94;5034248;28;20201;-59
2021/12/10 03:46:08;;;;;;;24.03;13.20;;;;;;;4.81;100.00;93476.84;5034343;28;20290;-61
2021/12/10 03:48:42;;;;;;;26.17;12.43;;;;;;;4.92;100.00;93481.81;5034258;28;20753;-60
2021/12/10 03:51:13;;;;;;;18.90;11.37;;;;;;;4.90;100.00;93491.22;5034278;28;20219;-58
2021/12/10 03:53:39;;;;;;;18.87;11.53;;;;;;;4.93;100.00;93494.28;5032889;28;20570;-58
2021/12/10 03:56:09;;;;;;;22.20;11.73;;;;;;;4.95;100.00;93494.94;5034011;28;20570;-62
2021/12/10 03:58:35;;;;;;;19.27;12.30;;;;;;;4.77;100.00;93503.19;5034167;28;20228;-58
2021/12/10 04:01:04;;;;;;;20.13;12.93;;;;;;;4.69;100.00;93498.78;5034176;28;20243;-62
2021/12/10 04:03:30;;;;;;;20.57;12.50;;;;;;;4.80;100.00;93501.25;5032473;28;20204;-58
2021/12/10 04:05:56;;;;;;;17.57;10.33;;;;;;;4.77;100.00;93485.56;5033710;28;20207;-61
2021/12/10 04:08:22;;;;;;;18.90;12.57;;;;;;;4.99;100.00;93487.94;5032445;28;20189;-61
2021/12/10 04:10:49;;;;;;;18.77;10.93;;;;;;;5.03;100.00;93490.09;5034209;28;20266;-63
2021/12/10 04:13:15;;;;;;;21.37;12.47;;;;;;;5.10;100.00;93485.34;5034016;28;20257;-59
2021/12/10 04:15:41;;;;;;;17.07;11.80;;;;;;;5.32;100.00;93489.41;5033737;28;20590;-63
2021/12/10 04:18:09;;;;;;;17.57;11.73;;;;;;;5.26;100.00;93498.28;5033434;28;20663;-58
2021/12/10 04:20:35;;;;;;;14.80;9.70;;;;;;;5.10;100.00;93503.78;5042032;23;20228;-59
2021/12/10 04:23:02;;;;;;;19.37;12.40;;;;;;;5.13;100.00;93500.19;5032170;28;20198;-61
2021/12/10 04:25:28;;;;;;;17.23;10.93;;;;;;;5.24;100.00;93505.16;5033216;28;20582;-62
2021/12/10 04:28:00;;;;;;;17.13;11.37;;;;;;;5.28;100.00;93493.09;5032698;28;20178;-62
2021/12/10 04:30:29;;;;;;;20.37;10.67;;;;;;;5.34;100.00;93513.56;5033146;28;20754;-61
2021/12/10 04:32:54;;;;;;;17.73;11.60;;;;;;;5.35;100.00;93509.31;5033115;28;20198;-58
2021/12/10 04:35:20;;;;;;;15.73;9.97;;;;;;;5.36;100.00;93505.84;5031941;28;20271;-62
2021/12/10 04:37:49;;;;;;;19.53;11.27;;;;;;;5.32;100.00;93510.38;5033072;28;20263;-58
2021/12/10 04:40:18;;;;;;;16.97;10.27;;;;;;;5.34;100.00;93512.75;5032980;28;20209;-60
2021/12/10 04:42:45;;;;;;;15.03;9.87;;;;;;;5.54;100.00;93515.22;5032953;28;20205;-62
2021/12/10 04:45:12;;;;;;;17.37;11.17;;;;;;;5.57;100.00;93514.97;5031662;28;20574;-62
2021/12/10 04:47:38;;;;;;;20.53;10.20;;;;;;;5.63;100.00;93504.38;5032959;28;20566;-58
2021/12/10 04:50:06;;;;;;;13.47;9.33;;;;;;;5.61;100.00;93501.19;5032670;28;20276;-62
2021/12/10 04:52:34;;;;;;;15.43;9.57;;;;;;;5.66;100.00;93500.78;5033080;28;20185;-61
2021/12/10 04:55:00;;;;;;;15.37;10.07;;;;;;;6.28;100.00;93505.56;5032715;28;20263;-65
2021/12/10 04:57:25;;;;;;;18.73;10.63;;;;;;;7.65;100.00;93508.28;5032655;28;20232;-62
2021/12/10 04:59:51;;;;;;;18.10;10.63;;;;;;;7.27;100.00;93519.34;5032685;28;20206;-59
2021/12/10 05:02:17;;;;;;;15.50;10.13;;;;;;;6.70;100.00;93512.72;5032788;28;20197;-58
2021/12/10 05:04:45;;;;;;;17.03;11.50;;;;;;;6.24;100.00;93506.75;5032548;28;20678;-60
2021/12/10 05:07:13;;;;;;;17.47;11.43;;;;;;;6.23;100.00;93503.41;5033230;28;20652;-61
2021/12/10 05:09:39;;;;;;;16.33;9.70;;;;;;;6.18;100.00;93515.63;5032290;28;20212;-62
2021/12/10 05:12:05;;;;;;;17.23;10.17;;;;;;;6.20;100.00;93523.06;5032581;28;20190;-59
2021/12/10 05:14:32;;;;;;;15.87;11.23;;;;;;;6.21;100.00;93529.69;5031711;28;20219;-62
2021/12/10 05:17:03;;;;;;;16.70;10.93;;;;;;;6.29;100.00;93524.78;5032743;28;20544;-59
2021/12/10 05:19:30;;;;;;;17.03;10.77;;;;;;;6.14;100.00;93516.03;5032300;28;20203;-61
2021/12/10 05:21:59;;;;;;;19.97;11.77;;;;;;;6.21;100.00;93520.41;5032235;28;20196;-62
2021/12/10 05:24:26;;;;;;;18.27;11.63;;;;;;;6.16;100.00;93524.28;5032084;28;20214;-59
2021/12/10 05:26:53;;;;;;;23.57;14.13;;;;;;;5.85;100.00;93528.59;5032054;28;20193;-60
2021/12/10 05:29:18;;;;;;;23.77;13.30;;;;;;;5.54;100.00;93521.97;5032038;28;20577;-61
2021/12/10 05:31:45;;;;;;;24.00;14.67;;;;;;;5.44;100.00;93518.63;5032012;28;20197;-59
2021/12/10 05:34:12;;;;;;;25.37;15.63;;;;;;;5.29;100.00;93519.91;5032294;28;20195;-61
2021/12/10 05:36:38;;;;;;;36.60;20.33;;;;;;;5.39;100.00;93524.06;5030799;28;20708;-59
2021/12/10 05:39:06;;;;;;;32.33;20.73;;;;;;;5.25;100.00;93524.41;5029763;28;20346;-62
2021/12/10 05:41:33;;;;;;;36.67;22.30;;;;;;;5.35;100.00;93526.94;5032130;28;20212;-63
2021/12/10 05:43:58;;;;;;;43.03;24.93;;;;;;;5.22;100.00;93529.69;5031605;28;20291;-61
2021/12/10 05:46:24;;;;;;;51.83;28.90;;;;;;;5.11;100.00;93539.81;5030146;28;20768;-60
2021/12/10 05:48:50;;;;;;;45.93;25.83;;;;;;;4.96;100.00;93538.56;5031793;28;20609;-59
2021/12/10 05:51:16;;;;;;;41.57;26.00;;;;;;;4.99;100.00;93534.06;5031701;28;20288;-60
2021/12/10 05:53:42;;;;;;;41.23;25.93;;;;;;;5.05;100.00;93518.47;5031543;28;20168;-61
2021/12/10 05:56:09;;;;;;;39.00;24.93;;;;;;;4.91;100.00;93513.75;5031447;28;20244;-59
2021/12/10 05:58:34;;;;;;;40.67;24.00;;;;;;;4.88;100.00;93515.72;5031492;28;20176;-61
2021/12/10 06:01:07;;;;;;;39.70;23.20;;;;;;;4.74;100.00;93513.53;5030171;28;20232;-59
2021/12/10 06:03:35;;;;;;;33.13;18.87;;;;;;;4.66;100.00;93506.59;5031480;28;20205;-60
2021/12/10 06:06:00;;;;;;;39.07;22.43;;;;;;;4.70;100.00;93507.13;5030094;28;20611;-59
2021/12/10 06:08:27;;;;;;;37.63;22.50;;;;;;;4.55;100.00;93526.78;5031543;28;20695;-60
2021/12/10 06:10:54;;;;;;;47.27;26.50;;;;;;;4.45;100.00;93510.81;5031537;28;20202;-61
2021/12/10 06:13:20;;;;;;;45.00;26.53;;;;;;;4.38;100.00;93511.44;5031452;28;20537;-60
2021/12/10 06:15:45;;;;;;;45.27;27.43;;;;;;;4.29;100.00;93502.88;5031513;28;20212;-58
2021/12/10 06:18:11;;;;;;;43.00;24.73;;;;;;;4.34;100.00;93503.34;5031432;28;20182;-62
2021/12/10 06:20:41;;;;;;;42.73;24.70;;;;;;;4.39;100.00;93505.47;5038901;22;20241;-62
2021/12/10 06:23:07;;;;;;;45.23;25.20;;;;;;;4.31;100.00;93508.59;5031393;28;20201;-59
2021/12/10 06:25:33;;;;;;;40.40;22.33;;;;;;;4.14;100.00;93514.94;5031816;28;20202;-63
2021/12/10 06:27:59;;;;;;;35.97;21.63;;;;;;;4.01;100.00;93516.03;5031519;28;20167;-60
2021/12/10 06:30:31;;;;;;;37.03;22.90;;;;;;;4.03;100.00;93522.53;5031742;28;20205;-60
2021/12/10 06:32:59;;;;;;;32.20;20.40;;;;;;;3.97;100.00;93514.66;5031521;28;20201;-60
2021/12/10 06:35:27;;;;;;;33.87;21.60;;;;;;;4.00;100.00;93522.75;5031683;28;20226;-59
2021/12/10 06:37:53;;;;;;;34.87;20.83;;;;;;;4.08;100.00;93497.03;5030158;28;20175;-60
2021/12/10 06:40:22;;;;;;;34.27;20.23;;;;;;;4.43;100.00;93484.16;5031727;28;20210;-62
2021/12/10 06:42:49;;;;;;;35.37;20.43;;;;;;;4.79;100.00;93491.28;5029956;28;20754;-61
2021/12/10 06:45:17;;;;;;;33.60;21.80;;;;;;;6.53;100.00;93490.66;5031179;28;20302;-58
2021/12/10 06:47:47;;;;;;;28.17;18.27;;;;;;;7.40;100.00;93494.56;5031382;28;20181;-59
2021/12/10 06:50:18;;;;;;;27.60;17.27;;;;;;;8.74;100.00;93495.44;5031920;28;20220;-61
2021/12/10 06:52:44;;;;;;;23.30;16.57;;;;;;;9.50;100.00;93483.66;5035236;28;20173;-60
2021/12/10 06:55:10;;;;;;;31.13;18.90;;;;;;;8.93;100.00;93470.69;5033878;28;20284;-61
2021/12/10 06:57:37;;;;;;;25.63;17.87;;;;;;;8.31;100.00;93511.38;5034303;28;20649;-62
2021/12/10 07:00:14;;;;;;;25.53;16.30;;;;;;;7.27;100.00;93503.41;5035019;28;20321;-60
2021/12/10 07:02:39;;;;;;;26.20;17.73;;;;;;;7.01;100.00;93503.19;5034967;28;20240;-62
2021/12/10 07:05:07;;;;;;;26.83;18.20;;;;;;;6.79;100.00;93498.44;5033423;28;20300;-61
2021/12/10 07:07:33;;;;;;;30.30;19.40;;;;;;;6.26;100.00;93485.47;5034703;28;20259;-58
2021/12/10 07:10:00;;;;;;;29.93;19.53;;;;;;;5.87;100.00;93506.56;5034779;28;20659;-60
2021/12/10 07:12:26;;;;;;;29.53;19.77;;;;;;;5.70;100.00;93485.28;5034592;28;20180;-61
2021/12/10 07:14:53;;;;;;;33.87;19.53;;;;;;;5.08;100.00;93515.69;5033268;28;20302;-62
2021/12/10 07:17:19;;;;;;;27.87;17.93;;;;;;;5.33;100.00;93518.72;5034533;28;20181;-64
2021/12/10 07:19:44;;;;;;;28.70;17.10;;;;;;;5.04;100.00;93501.75;5034332;28;20201;-60
2021/12/10 07:22:11;;;;;;;33.67;19.03;;;;;;;5.00;100.00;93517.25;5034634;28;20179;-63
2021/12/10 07:24:37;;;;;;;29.47;18.83;;;;;;;5.19;100.00;93519.06;5034807;28;20208;-60
2021/12/10 07:27:02;;;;;;;35.57;19.60;;;;;;;5.05;100.00;93502.53;5034483;28;20172;-60
2021/12/10 07:29:28;;;;;;;35.43;20.07;;;;;;;5.50;100.00;93497.94;5034391;28;20192;-62
2021/12/10 07:31:54;;;;;;;28.67;18.97;;;;;;;5.35;100.00;93510.13;5034103;28;20176;-62
2021/12/10 07:34:19;;;;;;;28.10;16.67;;;;;;;5.51;100.00;93502.06;5032855;28;20185;-63
2021/12/10 07:36:45;;;;;;;28.97;17.53;;;;;;;5.59;100.00;93500.50;5034050;28;20581;-59
2021/12/10 07:39:10;;;;;;;29.43;19.73;;;;;;;5.28;100.00;93498.13;5033430;28;20180;-62
2021/12/10 07:41:37;;;;;;;29.83;18.70;;;;;;;5.23;100.00;93490.19;5033890;28;20175;-60
2021/12/10 07:44:04;;;;;;;33.77;19.20;;;;;;;5.49;100.00;93502.22;5033657;28;20583;-59
2021/12/10 07:46:32;;;;;;;29.73;18.83;;;;;;;5.37;100.00;93510.00;5033995;28;20225;-60
2021/12/10 07:48:57;;;;;;;26.60;17.20;;;;;;;5.67;100.00;93495.63;5033534;28;20182;-62
2021/12/10 07:51:26;;;;;;;30.97;17.63;;;;;;;5.77;100.00;93508.25;5032467;28;20192;-59
2021/12/10 07:53:57;;;;;;;29.63;18.20;;;;;;;5.45;100.00;93490.00;5033382;28;20186;-61
2021/12/10 07:56:25;;;;;;;30.13;17.47;;;;;;;5.28;100.00;93483.81;5033706;28;20220;-61
2021/12/10 07:58:50;;;;;;;35.70;21.13;;;;;;;5.54;100.00;93484.16;5033747;28;20186;-59
2021/12/10 08:01:20;;;;;;;32.70;19.33;;;;;;;5.82;100.00;93476.66;5033650;28;20638;-62
2021/12/10 08:03:48;;;;;;;35.50;20.37;;;;;;;5.98;100.00;93493.81;5032532;28;20208;-62
2021/12/10 08:06:15;;;;;;;41.87;22.07;;;;;;;6.08;100.00;93509.00;5033882;28;20210;-60
2021/12/10 08:08:41;;;;;;;32.77;19.20;;;;;;;6.07;100.00;93500.63;5033516;28;20272;-62
2021/12/10 08:11:06;;;;;;;32.50;19.43;;;;;;;6.05;100.00;93499.97;5033935;28;20247;-62
2021/12/10 08:13:32;;;;;;;37.80;20.03;;;;;;;6.22;100.00;93491.72;5033086;28;20177;-62
2021/12/10 08:15:58;;;;;;;32.20;19.27;;;;;;;6.41;100.00;93494.25;5031915;28;20212;-61
2021/12/10 08:18:24;;;;;;;33.63;19.70;;;;;;;6.54;100.00;93499.84;5033217;28;20189;-58
2021/12/10 08:20:49;;;;;;;30.13;18.27;;;;;;;6.29;100.00;93481.91;5033136;28;20214;-62
2021/12/10 08:23:15;;;;;;;35.87;20.10;;;;;;;6.69;100.00;93490.91;5033242;28;20209;-63
2021/12/10 08:25:41;;;;;;;32.00;19.17;;;;;;;7.15;100.00;93496.91;5033641;28;20237;-61
2021/12/10 08:28:06;;;;;;;29.10;18.10;;;;;;;7.24;100.00;93506.19;5033261;28;20264;-62
2021/12/10 08:30:35;;;;;;;29.30;18.90;;;;;;;6.98;100.00;93500.94;5033536;28;20249;-62
2021/12/10 08:33:01;;;;;;;33.63;18.90;;;;;;;6.97;100.00;93494.28;5032916;28;20596;-63
2021/12/10 08:35:31;;;;;;;31.77;20.77;;;;;;;7.64;100.00;93494.03;5033385;28;20619;-63
2021/12/10 08:38:00;;;;;;;33.13;20.30;;;;;;;7.87;100.00;93510.44;5031573;28;20561;-61
2021/12/10 08:40:32;;;;;;;30.27;18.17;;;;;;;7.81;100.00;93511.00;5033122;28;20572;-61
2021/12/10 08:42:58;;;;;;;28.00;17.63;;;;;;;7.76;100.00;93484.53;5032693;28;20198;-60
2021/12/10 08:45:25;;;;;;;30.80;19.37;;;;;;;7.39;100.00;93494.69;5031576;28;20213;-61
2021/12/10 08:47:53;;;;;;;29.87;19.97;;;;;;;7.16;100.00;93496.78;5032637;28;20251;-61
2021/12/10 08:50:23;;;;;;;26.13;18.27;;;;;;;7.13;100.00;93483.63;5032729;28;20206;-61
2021/12/10 08:52:57;;;;;;;29.20;18.87;;;;;;;7.32;100.00;93484.34;5032680;28;20166;-61
2021/12/10 08:55:23;;;;;;;36.13;22.07;;;;;;;7.15;100.00;93495.16;5032553;28;20215;-62
2021/12/10 08:57:49;;;;;;;34.67;22.03;;;;;;;6.96;100.00;93491.91;5032435;28;20182;-62
2021/12/10 09:00:17;;;;;;;33.20;21.17;;;;;;;7.17;100.00;93500.09;5047031;22;20236;-62
2021/12/10 09:02:42;;;;;;;45.93;24.50;;;;;;;7.08;100.00;93493.34;5032193;28;20198;-62
2021/12/10 09:05:10;;;;;;;39.90;24.23;;;;;;;6.80;100.00;93482.38;5040389;22;20216;-62
2021/12/10 09:07:38;;;;;;;37.53;25.20;;;;;;;7.12;100.00;93492.13;5031444;28;20271;-62
2021/12/10 09:10:08;;;;;;;43.83;25.10;;;;;;;6.81;100.00;93480.66;5032111;28;20216;-61
2021/12/10 09:12:35;;;;;;;42.33;25.13;;;;;;;6.89;100.00;93478.25;5032398;28;20185;-60
2021/12/10 09:15:02;;;;;;;43.07;26.97;;;;;;;6.93;100.00;93479.56;5031711;28;20570;-61
2021/12/10 09:17:30;;;;;;;43.20;27.17;;;;;;;6.49;100.00;93468.34;5032058;28;20173;-61
2021/12/10 09:19:59;;;;;;;37.63;24.17;;;;;;;6.15;100.00;93446.97;5032059;28;20205;-62
2021/12/10 09:22:27;;;;;;;44.37;26.87;;;;;;;6.65;100.00;93461.00;5030121;28;20259;-60
2021/12/10 09:24:57;;;;;;;43.33;27.00;;;;;;;6.74;100.00;93476.16;5031711;28;20687;-62
2021/12/10 09:27:24;;;;;;;44.13;26.00;;;;;;;6.69;100.00;93460.59;5030573;28;20651;-62
2021/12/10 09:29:52;;;;;;;42.70;26.07;;;;;;;6.76;100.00;93476.81;5031702;28;20205;-60
2021/12/10 09:32:20;;;;;;;41.63;26.37;;;;;;;6.81;100.00;93468.03;5031701;28;20201;-61
2021/12/10 09:34:46;;;;;;;45.47;27.77;;;;;;;6.73;100.00;93477.06;5039155;22;20228;-61
2021/12/10 09:37:12;;;;;;;49.80;28.37;;;;;;;6.87;100.00;93458.16;5031886;28;20186;-62
2021/12/10 09:39:38;;;;;;;45.23;27.80;;;;;;;7.17;100.00;93442.00;5031968;28;20201;-61
2021/12/10 09:42:05;;;;;;;45.63;28.33;;;;;;;7.16;100.00;93437.84;5031614;28;20221;-60
2021/12/10 09:44:31;;;;;;;41.30;28.40;;;;;;;8.12;100.00;93436.34;5030469;28;20608;-60
2021/12/10 09:46:57;;;;;;;44.17;27.13;;;;;;;8.71;100.00;93435.72;5031593;28;20676;-62
2021/12/10 09:49:24;;;;;;;46.27;29.60;;;;;;;9.35;100.00;93439.53;5031426;28;20182;-62
2021/12/10 09:51:54;;;;;;;48.17;28.67;;;;;;;9.62;100.00;93462.94;5031375;28;20189;-60
2021/12/10 09:54:22;;;;;;;47.90;28.27;;;;;;;9.20;100.00;93459.59;5030110;28;20189;-60
2021/12/10 09:56:52;;;;;;;50.70;27.37;;;;;;;8.84;100.00;93453.06;5030979;28;20783;-61
2021/12/10 09:59:18;;;;;;;36.20;25.17;;;;;;;8.94;100.00;93457.09;5031390;28;20169;-62
2021/12/10 10:01:47;;;;;;;39.57;25.03;;;;;;;8.88;100.00;93452.63;5031370;28;20190;-62
2021/12/10 10:04:17;;;;;;;36.63;23.23;;;;;;;8.98;100.00;93448.25;5029974;28;20216;-61
2021/12/10 10:06:48;;;;;;;36.83;22.27;;;;;;;9.16;100.00;93443.09;5030122;28;20298;-62
2021/12/10 10:09:16;;;;;;;35.63;23.13;;;;;;;9.04;100.00;93413.88;5031145;28;20182;-62
2021/12/10 10:11:43;;;;;;;38.37;25.40;;;;;;;8.82;100.00;93405.06;5031033;28;20194;-62
2021/12/10 10:14:09;;;;;;;35.17;23.20;;;;;;;9.18;100.00;93421.72;5031272;28;20278;-59
2021/12/10 10:16:39;;;;;;;38.40;25.40;;;;;;;9.12;100.00;93439.28;5031563;28;20222;-61
2021/12/10 10:19:05;;;;;;;47.03;25.70;;;;;;;9.14;100.00;93427.25;5030741;28;20264;-63
2021/12/10 10:21:39;;;;;;;39.60;25.77;;;;;;;9.50;100.00;93410.91;5029375;28;20249;-62
2021/12/10 10:24:06;;;;;;;40.27;25.00;;;;;;;9.71;100.00;93436.66;5029135;28;20197;-60
2021/12/10 10:26:39;;;;;;;44.47;27.93;;;;;;;9.69;100.00;93420.78;5022133;23;20318;-59
2021/12/10 10:29:13;;;;;;;39.60;24.17;;;;;;;9.79;100.00;93443.50;5015354;28;20167;-59
2021/12/10 10:31:50;;;;;;;36.93;22.67;;;;;;;9.67;100.00;93416.81;5021124;23;20223;-62
2021/12/10 10:34:24;;;;;;;30.60;20.27;;;;;;;9.95;100.00;93397.84;5015421;28;20194;-63
2021/12/10 10:36:50;;;;;;;36.23;23.07;;;;;;;9.93;100.00;93400.53;5015224;28;20190;-61
2021/12/10 10:39:24;;;;;;;34.13;23.47;;;;;;;9.59;100.00;93417.59;5015131;28;20183;-61
2021/12/10 10:41:54;;;;;;;41.87;27.73;;;;;;;9.36;100.00;93392.94;5015196;28;20171;-58
2021/12/10 10:44:20;;;;;;;42.63;26.03;;;;;;;9.36;100.00;93375.19;5015136;28;20214;-63
2021/12/10 10:46:47;;;;;;;35.87;24.73;;;;;;;9.84;100.00;93391.31;5014931;28;20190;-59
2021/12/10 10:49:34;;;;;;;37.87;24.00;;;;;;;9.74;100.00;93405.09;5014834;28;20190;-62
2021/12/10 10:52:24;;;;;;;34.23;22.20;;;;;;;12.08;100.00;93382.50;5014863;28;20179;-60
2021/12/10 10:54:54;;;;;;;32.13;21.40;;;;;;;12.22;100.00;93389.41;5015117;28;20625;-59
2021/12/10 10:57:24;;;;;;;33.17;23.57;;;;;;;11.93;100.00;93456.28;5014906;28;20175;-60
2021/12/10 10:59:56;;;;;;;35.67;22.27;;;;;;;11.79;100.00;93457.00;5015228;28;20195;-59
2021/12/10 11:02:24;;;;;;;31.23;20.63;;;;;;;11.28;100.00;93445.56;5014827;28;20273;-61
2021/12/10 11:04:51;;;;;;;33.57;22.20;;;;;;;10.73;100.00;93368.44;5015415;28;20284;-63
2021/12/10 11:07:22;;;;;;;33.87;22.87;;;;;;;10.46;100.00;93384.06;5014887;28;20547;-61
2021/12/10 11:09:54;;;;;;;37.40;21.30;;;;;;;10.34;100.00;93391.25;5013474;28;20203;-59
2021/12/10 11:12:29;;;;;;;38.97;22.27;;;;;;;9.88;100.00;93374.81;5027343;22;20237;-60
2021/12/10 11:14:57;;;;;;;34.67;22.93;;;;;;;9.82;100.00;93383.06;5034446;28;20190;-63
2021/12/10 11:17:44;;;;;;;31.10;20.20;;;;;;;9.57;100.00;93381.44;5034403;28;20795;-60
2021/12/10 11:20:14;;;;;;;28.13;18.83;;;;;;;9.14;100.00;93384.94;5034298;28;20194;-60
2021/12/10 11:22:52;;;;;;;25.83;16.63;;;;;;;8.84;100.00;93389.72;5034458;28;20198;-59
2021/12/10 11:25:28;;;;;;;24.77;16.20;;;;;;;8.72;100.00;93380.78;5034000;28;20273;-60
2021/12/10 11:28:14;;;;;;;33.00;18.90;;;;;;;8.65;100.00;93382.31;5034602;28;20199;-63
2021/12/10 11:30:43;;;;;;;26.07;16.17;;;;;;;8.43;100.00;93369.22;5034233;28;20198;-59
2021/12/10 11:33:15;;;;;;;23.57;16.43;;;;;;;8.36;100.00;93349.72;5034881;28;20277;-61
2021/12/10 11:35:49;;;;;;;22.67;14.27;;;;;;;8.42;100.00;93356.72;5033937;28;20197;-61
2021/12/10 11:38:15;;;;;;;26.43;16.43;;;;;;;8.24;100.00;93354.16;5031450;28;20225;-60